createdAt,value
2018-06-20T09:38:54.582Z,69.96
2018-06-20T09:39:54.558Z,68.12
2018-06-20T09:40:54.554Z,68.32
2018-06-20T09:41:54.549Z,66.11
2018-06-20T09:42:54.526Z,67.08
2018-06-20T09:43:54.512Z,66.21
2018-06-20T09:44:54.503Z,69.18
2018-06-20T09:45:54.492Z,69.09
2018-06-20T09:46:54.496Z,69.09
2018-06-20T09:47:54.467Z,69.41
2018-06-20T09:48:54.456Z,68.25
2018-06-20T09:49:54.445Z,70.77
2018-06-20T09:50:54.436Z,70.03
2018-06-20T09:51:54.437Z,72.07
2018-06-20T09:52:54.415Z,69.48
2018-06-20T09:53:54.408Z,68.32
2018-06-20T09:54:54.401Z,68.35
2018-06-20T09:55:54.387Z,69.22
2018-06-20T09:56:54.641Z,69.90
2018-06-20T09:57:54.407Z,69.57
2018-06-20T09:58:54.360Z,69.57
2018-06-20T09:59:54.350Z,69.48
2018-06-20T10:00:54.338Z,70.93
2018-06-20T10:01:54.339Z,69.76
2018-06-20T10:02:54.327Z,71.67
2018-06-20T10:03:54.309Z,71.09
2018-06-20T10:04:54.305Z,71.48
2018-06-20T10:05:54.290Z,71.73
2018-06-20T10:06:54.360Z,71.70
2018-06-20T10:07:54.268Z,73.67
2018-06-20T10:08:54.258Z,73.35
2018-06-20T10:09:54.251Z,70.80
2018-06-20T10:10:54.240Z,70.99
2018-06-20T10:11:54.234Z,71.51
2018-06-20T10:12:54.230Z,70.39
2018-06-20T10:13:54.216Z,69.41
2018-06-20T10:14:54.200Z,70.00
2018-06-20T10:15:54.187Z,68.96
2018-06-20T10:16:54.190Z,67.80
2018-06-20T10:17:54.246Z,69.38
2018-06-20T10:18:54.161Z,67.99
2018-06-20T10:19:54.154Z,65.69
2018-06-20T10:20:54.160Z,66.47
2018-06-20T10:21:54.130Z,67.86
2018-06-20T10:22:54.138Z,69.22
2018-06-20T10:23:54.119Z,66.79
2018-06-20T10:24:54.102Z,64.75
2018-06-20T10:25:54.096Z,67.05
2018-06-20T10:26:54.083Z,66.37
2018-06-20T10:27:54.073Z,66.76
2018-06-20T10:28:54.076Z,66.53
2018-06-20T10:29:54.061Z,67.93
2018-06-20T10:30:54.044Z,66.47
2018-06-20T10:31:54.042Z,68.41
2018-06-20T10:32:54.034Z,69.12
2018-06-20T10:33:54.032Z,69.90
2018-06-20T10:34:54.008Z,69.51
2018-06-20T10:35:54.010Z,68.96
2018-06-20T10:36:53.988Z,68.08
2018-06-20T10:37:53.986Z,69.22
2018-06-20T10:38:53.979Z,69.15
2018-06-20T10:39:53.974Z,70.36
2018-06-20T10:40:53.959Z,70.45
2018-06-20T10:41:53.955Z,68.80
2018-06-20T10:42:53.932Z,70.22
2018-06-20T10:43:53.934Z,67.96
2018-06-20T10:44:53.921Z,70.00
2018-06-20T10:45:53.902Z,70.48
2018-06-20T10:46:53.915Z,69.90
2018-06-20T10:47:53.892Z,71.70
2018-06-20T10:48:53.882Z,71.51
2018-06-20T10:49:53.865Z,70.93
2018-06-20T10:50:53.857Z,69.48
2018-06-20T10:51:53.960Z,70.51
2018-06-20T10:52:53.836Z,70.36
2018-06-20T10:53:53.854Z,67.44
2018-06-20T10:54:53.820Z,66.60
2018-06-20T10:55:53.810Z,65.04
2018-06-20T10:56:53.806Z,66.69
2018-06-20T10:57:53.799Z,68.41
2018-06-20T10:58:53.789Z,70.12
2018-06-20T10:59:53.778Z,70.25
2018-06-20T11:00:53.762Z,67.60
2018-06-20T11:01:53.752Z,65.33
2018-06-20T11:02:53.741Z,63.62
2018-06-20T11:03:53.745Z,64.00
2018-06-20T11:04:53.721Z,63.45
2018-06-20T11:05:53.715Z,63.29
2018-06-20T11:06:53.708Z,64.91
2018-06-20T11:07:53.695Z,66.63
2018-06-20T11:08:53.703Z,67.08
2018-06-20T11:09:53.677Z,68.31
2018-06-20T11:10:53.665Z,69.18
2018-06-20T11:11:53.664Z,67.66
2018-06-20T11:12:53.658Z,69.58
2018-06-20T11:13:53.680Z,65.75
2018-06-20T11:14:53.644Z,64.55
2018-06-20T11:15:53.618Z,62.66
2018-06-20T11:16:53.608Z,60.00
2018-06-20T11:17:53.602Z,57.36
2018-06-20T11:18:53.591Z,57.00
2018-06-20T11:19:53.591Z,57.03
2018-06-20T11:20:53.581Z,58.72
2018-06-20T11:21:53.559Z,58.52
2018-06-20T11:22:53.554Z,53.44
2018-06-20T11:23:53.545Z,54.27
2018-06-20T11:24:53.545Z,54.13
2018-06-20T11:25:53.534Z,54.25
2018-06-20T11:26:53.516Z,54.15
2018-06-20T11:27:53.506Z,53.32
2018-06-20T11:28:53.501Z,53.15
2018-06-20T11:29:53.505Z,53.09
2018-06-20T11:30:53.482Z,56.79
2018-06-20T11:31:53.508Z,58.02
2018-06-20T11:32:53.467Z,55.97
2018-06-20T11:33:53.458Z,60.03
2018-06-20T11:34:53.455Z,60.10
2018-06-20T11:35:53.453Z,60.20
2018-06-20T11:36:53.437Z,59.49
2018-06-20T11:37:53.417Z,59.09
2018-06-20T11:38:53.468Z,58.04
2018-06-20T11:39:53.405Z,57.24
2018-06-20T11:40:53.411Z,57.31
2018-06-20T11:41:53.419Z,56.61
2018-06-20T11:42:53.375Z,57.35
2018-06-20T11:43:53.371Z,54.40
2018-06-20T11:44:53.359Z,53.47
2018-06-20T11:45:53.349Z,52.37
2018-06-20T11:46:53.366Z,52.86
2018-06-20T11:47:53.333Z,53.59
2018-06-20T11:48:53.327Z,54.28
2018-06-20T11:49:53.352Z,57.87
2018-06-20T11:50:53.307Z,61.05
2018-06-20T11:51:53.308Z,61.83
2018-06-20T11:52:53.287Z,60.72
2018-06-20T11:53:53.284Z,58.40
2018-06-20T11:54:53.271Z,54.36
2018-06-20T11:55:53.263Z,53.71
2018-06-20T11:56:53.266Z,54.25
2018-06-20T11:57:53.249Z,55.86
2018-06-20T11:58:53.252Z,54.80
2018-06-20T11:59:53.229Z,53.91
2018-06-20T12:00:53.220Z,54.27
2018-06-20T12:01:53.268Z,56.41
2018-06-20T12:02:53.202Z,54.30
2018-06-20T12:03:53.206Z,54.56
2018-06-20T12:04:53.185Z,52.31
2018-06-20T12:05:53.177Z,53.37
2018-06-20T12:06:53.213Z,52.12
2018-06-20T12:07:53.171Z,51.83
2018-06-20T12:08:53.154Z,49.36
2018-06-20T12:09:53.143Z,49.04
2018-06-20T12:10:53.143Z,50.85
2018-06-20T12:11:53.125Z,47.37
2018-06-20T12:12:53.127Z,47.77
2018-06-20T12:13:53.111Z,45.95
2018-06-20T12:14:53.101Z,49.11
2018-06-20T12:15:53.093Z,44.96
2018-06-20T12:16:53.086Z,45.91
2018-06-20T12:17:53.088Z,48.97
2018-06-20T12:18:53.075Z,53.29
2018-06-20T12:19:53.064Z,53.24
2018-06-20T12:20:53.057Z,55.07
2018-06-20T12:21:53.054Z,57.37
2018-06-20T12:22:53.048Z,57.86
2018-06-20T12:23:53.042Z,56.16
2018-06-20T12:24:53.020Z,54.02
2018-06-20T12:25:53.015Z,54.49
2018-06-20T12:26:53.006Z,53.13
2018-06-20T12:27:53.005Z,52.54
2018-06-20T12:28:52.991Z,49.48
2018-06-20T12:29:52.984Z,52.49
2018-06-20T12:30:52.969Z,53.53
2018-06-20T12:31:52.963Z,54.03
2018-06-20T12:32:52.970Z,53.42
2018-06-20T12:33:52.947Z,51.46
2018-06-20T12:34:52.940Z,50.29
2018-06-20T12:35:52.931Z,51.29
2018-06-20T12:36:52.927Z,49.26
2018-06-20T12:37:52.914Z,49.04
2018-06-20T12:38:52.916Z,50.32
2018-06-20T12:39:52.902Z,48.90
2018-06-20T12:40:52.932Z,52.03
2018-06-20T12:41:52.883Z,50.44
2018-06-20T12:42:52.873Z,49.14
2018-06-20T12:43:52.878Z,52.32
2018-06-20T12:44:52.865Z,51.17
2018-06-20T12:45:52.853Z,50.56
2018-06-20T12:46:52.894Z,47.42
2018-06-20T12:47:52.836Z,46.61
2018-06-20T12:48:52.832Z,44.65
2018-06-20T12:49:52.824Z,46.95
2018-06-20T12:50:52.812Z,47.74
2018-06-20T12:51:52.808Z,48.18
2018-06-20T12:52:52.796Z,49.07
2018-06-20T12:53:52.801Z,50.61
2018-06-20T12:54:52.785Z,49.43
2018-06-20T12:55:52.772Z,49.46
2018-06-20T12:56:52.776Z,52.06
2018-06-20T12:57:52.765Z,50.15
2018-06-20T12:58:52.768Z,52.17
2018-06-20T12:59:52.745Z,51.51
2018-06-20T13:00:52.746Z,52.54
2018-06-20T13:01:52.734Z,52.56
2018-06-20T13:02:52.725Z,54.36
2018-06-20T13:03:52.728Z,55.22
2018-06-20T13:04:52.712Z,55.09
2018-06-20T13:05:52.704Z,52.20
2018-06-20T13:06:52.700Z,51.39
2018-06-20T13:07:52.690Z,50.20
2018-06-20T13:08:52.701Z,47.74
2018-06-20T13:09:52.679Z,46.53
2018-06-20T13:10:52.671Z,47.01
2018-06-20T13:11:52.663Z,48.33
2018-06-20T13:12:52.657Z,44.74
2018-06-20T13:13:52.654Z,45.57
2018-06-20T13:14:52.655Z,43.51
2018-06-20T13:15:52.638Z,44.20
2018-06-20T13:16:52.633Z,44.64
2018-06-20T13:17:52.627Z,42.59
2018-06-20T13:18:52.630Z,44.15
2018-06-20T13:19:52.615Z,45.70
2018-06-20T13:20:52.605Z,43.12
2018-06-20T13:21:52.602Z,43.43
2018-06-20T13:22:52.593Z,44.47
2018-06-20T13:23:52.590Z,44.57
2018-06-20T13:24:52.594Z,43.65
2018-06-20T13:25:52.585Z,46.26
2018-06-20T13:26:52.612Z,42.43
2018-06-20T13:27:52.604Z,42.47
2018-06-20T13:28:52.566Z,41.53
2018-06-20T13:29:52.564Z,43.99
2018-06-20T13:30:52.554Z,44.98
2018-06-20T13:31:52.543Z,47.67
2018-06-20T13:32:52.537Z,48.83
2018-06-20T13:33:52.535Z,48.07
2018-06-20T13:34:52.544Z,44.80
2018-06-20T13:35:52.521Z,45.55
2018-06-20T13:36:52.516Z,45.62
2018-06-20T13:37:52.511Z,43.27
2018-06-20T13:38:52.503Z,41.72
2018-06-20T13:39:52.509Z,42.25
2018-06-20T13:40:52.506Z,40.51
2018-06-20T13:41:52.493Z,41.63
2018-06-20T13:42:52.486Z,41.16
2018-06-20T13:43:52.479Z,40.90
2018-06-20T13:44:52.478Z,40.84
2018-06-20T13:45:52.486Z,43.22
2018-06-20T13:46:52.477Z,43.47
2018-06-20T13:47:52.462Z,43.24
2018-06-20T13:48:52.456Z,42.45
2018-06-20T13:49:52.451Z,41.53
2018-06-20T13:50:52.459Z,40.86
2018-06-20T13:51:52.445Z,41.77
2018-06-20T13:52:52.445Z,41.17
2018-06-20T13:53:52.437Z,42.49
2018-06-20T13:54:52.433Z,40.84
2018-06-20T13:55:52.442Z,38.79
2018-06-20T13:56:52.427Z,39.25
2018-06-20T13:57:52.422Z,41.31
2018-06-20T13:58:52.425Z,40.09
2018-06-20T13:59:52.426Z,42.39
2018-06-20T14:00:52.458Z,43.29
2018-06-20T14:01:52.414Z,46.18
2018-06-20T14:02:52.410Z,46.41
2018-06-20T14:03:52.409Z,48.73
2018-06-20T14:04:52.403Z,48.58
2018-06-20T14:05:52.402Z,51.17
2018-06-20T14:06:52.405Z,50.29
2018-06-20T14:07:52.401Z,52.04
2018-06-20T14:08:52.391Z,54.65
2018-06-20T14:09:52.383Z,56.40
2018-06-20T14:10:52.379Z,55.13
2018-06-20T14:11:52.387Z,54.21
2018-06-20T14:12:52.370Z,56.33
2018-06-20T14:13:52.361Z,56.30
2018-06-20T14:14:52.356Z,53.87
2018-06-20T14:15:52.358Z,53.28
2018-06-20T14:16:52.450Z,53.19
2018-06-20T14:17:52.339Z,51.20
2018-06-20T14:18:52.332Z,46.59
2018-06-20T14:19:52.326Z,42.49
2018-06-20T14:20:52.330Z,41.35
2018-06-20T14:21:52.349Z,41.16
2018-06-20T14:22:52.308Z,40.90
2018-06-20T14:23:52.301Z,40.13
2018-06-20T14:24:52.298Z,39.44
2018-06-20T14:25:52.294Z,39.44
2018-06-20T14:26:52.288Z,40.09
2018-06-20T14:27:52.297Z,38.02
2018-06-20T14:28:52.279Z,36.17
2018-06-20T14:29:52.275Z,37.15
2018-06-20T14:30:52.278Z,37.93
2018-06-20T14:31:52.266Z,36.45
2018-06-20T14:32:52.276Z,36.07
2018-06-20T14:33:52.264Z,37.14
2018-06-20T14:34:52.261Z,37.61
2018-06-20T14:35:52.258Z,39.82
2018-06-20T14:36:52.255Z,41.33
2018-06-20T14:37:52.263Z,42.29
2018-06-20T14:38:52.320Z,43.76
2018-06-20T14:39:52.248Z,47.33
2018-06-20T14:40:52.246Z,49.82
2018-06-20T14:41:52.243Z,50.20
2018-06-20T14:42:52.253Z,50.95
2018-06-20T14:43:52.244Z,51.95
2018-06-20T14:44:52.241Z,51.37
2018-06-20T14:45:52.235Z,51.34
2018-06-20T14:46:52.228Z,52.34
2018-06-20T14:47:52.248Z,51.34
2018-06-20T14:48:52.222Z,48.77
2018-06-20T14:49:52.217Z,51.22
2018-06-20T14:50:52.212Z,50.37
2018-06-20T14:51:52.208Z,46.97
2018-06-20T14:52:52.206Z,45.73
2018-06-20T14:53:52.209Z,43.05
2018-06-20T14:54:52.197Z,42.57
2018-06-20T14:55:52.193Z,41.04
2018-06-20T14:56:52.185Z,40.03
2018-06-20T14:57:52.193Z,42.23
2018-06-20T14:58:52.187Z,44.91
2018-06-20T14:59:52.174Z,45.45
2018-06-20T15:00:52.192Z,47.53
2018-06-20T15:01:52.168Z,50.14
2018-06-20T15:02:52.156Z,48.24
2018-06-20T15:03:52.164Z,42.57
2018-06-20T15:04:52.153Z,42.77
2018-06-20T15:05:52.150Z,40.84
2018-06-20T15:06:52.198Z,40.70
2018-06-20T15:07:52.140Z,39.01
2018-06-20T15:08:52.146Z,38.35
2018-06-20T15:09:52.130Z,36.68
2018-06-20T15:10:52.127Z,35.31
2018-06-20T15:11:52.124Z,34.03
2018-06-20T15:12:52.122Z,34.84
2018-06-20T15:13:52.134Z,35.49
2018-06-20T15:14:52.124Z,33.97
2018-06-20T15:15:52.114Z,34.25
2018-06-20T15:16:52.111Z,33.97
2018-06-20T15:17:52.114Z,34.15
2018-06-20T15:18:52.370Z,34.86
2018-06-20T15:19:52.108Z,34.18
2018-06-20T15:20:52.113Z,35.17
2018-06-20T15:21:52.108Z,34.28
2018-06-20T15:22:52.106Z,33.82
2018-06-20T15:23:52.120Z,36.10
2018-06-20T15:24:52.107Z,39.27
2018-06-20T15:25:52.111Z,41.02
2018-06-20T15:26:52.108Z,38.52
2018-06-20T15:27:52.139Z,38.92
2018-06-20T15:28:52.114Z,41.55
2018-06-20T15:29:52.122Z,42.83
2018-06-20T15:30:52.109Z,43.71
2018-06-20T15:31:52.105Z,44.48
2018-06-20T15:32:52.107Z,45.16
2018-06-20T15:33:52.100Z,45.28
2018-06-20T15:34:52.119Z,43.99
2018-06-20T15:35:52.098Z,42.50
2018-06-20T15:36:52.099Z,44.44
2018-06-20T15:37:52.097Z,43.86
2018-06-20T15:38:52.094Z,40.11
2018-06-20T15:39:52.090Z,38.83
2018-06-20T15:40:52.098Z,35.10
2018-06-20T15:41:52.082Z,37.12
2018-06-20T15:42:52.080Z,38.81
2018-06-20T15:43:52.079Z,37.76
2018-06-20T15:44:52.080Z,40.66
2018-06-20T15:45:52.091Z,43.77
2018-06-20T15:46:52.070Z,43.27
2018-06-20T15:47:52.069Z,44.48
2018-06-20T15:48:52.079Z,42.82
2018-06-20T15:49:52.067Z,41.42
2018-06-20T15:50:52.097Z,41.68
2018-06-20T15:51:52.062Z,40.63
2018-06-20T15:52:52.058Z,38.85
2018-06-20T15:53:52.055Z,34.82
2018-06-20T15:54:52.050Z,35.18
2018-06-20T15:55:52.051Z,37.77
2018-06-20T15:56:52.064Z,39.84
2018-06-20T15:57:52.047Z,40.82
2018-06-20T15:58:52.048Z,42.45
2018-06-20T15:59:52.042Z,44.17
2018-06-20T16:00:52.040Z,46.23
2018-06-20T16:01:52.048Z,48.36
2018-06-20T16:02:52.035Z,48.26
2018-06-20T16:03:52.033Z,47.50
2018-06-20T16:04:52.031Z,49.14
2018-06-20T16:05:52.033Z,49.27
2018-06-20T16:06:52.032Z,51.29
2018-06-20T16:07:52.020Z,52.48
2018-06-20T16:08:52.014Z,50.24
2018-06-20T16:09:52.071Z,50.24
2018-06-20T16:10:52.009Z,49.26
2018-06-20T16:11:52.021Z,45.27
2018-06-20T16:12:52.005Z,44.65
2018-06-20T16:13:51.996Z,45.94
2018-06-20T16:14:51.993Z,48.51
2018-06-20T16:15:51.988Z,50.80
2018-06-20T16:16:52.052Z,51.19
2018-06-20T16:17:51.980Z,52.66
2018-06-20T16:18:51.981Z,53.05
2018-06-20T16:19:51.970Z,49.75
2018-06-20T16:20:51.968Z,47.16
2018-06-20T16:21:51.976Z,47.60
2018-06-20T16:22:51.962Z,47.65
2018-06-20T16:23:51.953Z,47.26
2018-06-20T16:24:51.950Z,47.28
2018-06-20T16:25:51.945Z,47.48
2018-06-20T16:26:51.950Z,48.54
2018-06-20T16:27:51.930Z,49.29
2018-06-20T16:28:51.936Z,51.80
2018-06-20T16:29:51.923Z,52.63
2018-06-20T16:30:51.917Z,52.44
2018-06-20T16:31:51.979Z,53.44
2018-06-20T16:32:51.910Z,53.60
2018-06-20T16:33:51.902Z,54.16
2018-06-20T16:34:51.897Z,54.55
2018-06-20T16:35:51.913Z,54.16
2018-06-20T16:36:51.894Z,55.82
2018-06-20T16:37:51.948Z,54.23
2018-06-20T16:38:51.871Z,55.62
2018-06-20T16:39:51.869Z,54.46
2018-06-20T16:40:51.860Z,55.33
2018-06-20T16:41:51.868Z,54.70
2018-06-20T16:42:51.846Z,50.42
2018-06-20T16:43:51.933Z,47.77
2018-06-20T16:44:51.841Z,45.88
2018-06-20T16:45:51.829Z,44.32
2018-06-20T16:46:51.822Z,42.38
2018-06-20T16:47:51.832Z,42.63
2018-06-20T16:48:51.854Z,39.81
2018-06-20T16:49:51.809Z,37.96
2018-06-20T16:50:51.797Z,37.87
2018-06-20T16:51:51.804Z,37.96
2018-06-20T16:52:51.806Z,38.98
2018-06-20T16:53:51.790Z,37.12
2018-06-20T16:54:51.791Z,40.00
2018-06-20T16:55:51.787Z,39.72
2018-06-20T16:56:51.796Z,38.89
2018-06-20T16:57:51.778Z,38.64
2018-06-20T16:58:51.777Z,38.73
2018-06-20T16:59:51.776Z,39.26
2018-06-20T17:00:51.774Z,38.10
2018-06-20T17:01:51.773Z,37.41
2018-06-20T17:02:51.783Z,39.28
2018-06-20T17:03:51.773Z,39.95
2018-06-20T17:04:51.769Z,41.41
2018-06-20T17:05:51.773Z,40.17
2018-06-20T17:06:51.772Z,41.08
2018-06-20T17:07:51.781Z,42.74
2018-06-20T17:08:51.776Z,42.18
2018-06-20T17:09:51.778Z,43.21
2018-06-20T17:10:51.779Z,44.17
2018-06-20T17:11:51.776Z,43.31
2018-06-20T17:12:51.788Z,42.18
2018-06-20T17:13:51.780Z,41.24
2018-06-20T17:14:51.774Z,41.11
2018-06-20T17:15:51.780Z,41.19
2018-06-20T17:16:51.782Z,41.63
2018-06-20T17:17:51.792Z,41.90
2018-06-20T17:18:51.781Z,42.52
2018-06-20T17:19:51.782Z,44.71
2018-06-20T17:20:51.783Z,44.80
2018-06-20T17:21:51.785Z,43.35
2018-06-20T17:22:51.794Z,42.88
2018-06-20T17:23:51.783Z,42.66
2018-06-20T17:24:51.838Z,42.47
2018-06-20T17:25:51.787Z,42.76
2018-06-20T17:26:51.786Z,42.57
2018-06-20T17:27:51.797Z,42.58
2018-06-20T17:28:51.791Z,42.18
2018-06-20T17:29:51.795Z,42.96
2018-06-20T17:30:51.789Z,42.37
2018-06-20T17:31:51.794Z,41.88
2018-06-20T17:32:51.802Z,41.80
2018-06-20T17:33:51.791Z,42.45
2018-06-20T17:34:51.798Z,42.43
2018-06-20T17:35:51.808Z,43.76
2018-06-20T17:36:51.797Z,44.49
2018-06-20T17:37:51.807Z,44.71
2018-06-20T17:38:51.804Z,43.90
2018-06-20T17:39:51.806Z,42.91
2018-06-20T17:40:51.809Z,41.00
2018-06-20T17:41:51.800Z,40.63
2018-06-20T17:42:51.803Z,39.58
2018-06-20T17:43:51.800Z,41.58
2018-06-20T17:44:51.810Z,44.17
2018-06-20T17:45:51.799Z,44.98
2018-06-20T17:46:51.806Z,44.83
2018-06-20T17:47:51.814Z,45.01
2018-06-20T17:48:51.915Z,46.01
2018-06-20T17:49:51.801Z,47.17
2018-06-20T17:50:51.801Z,47.60
2018-06-20T17:51:51.861Z,46.67
2018-06-20T17:52:51.807Z,46.11
2018-06-20T17:53:51.817Z,45.34
2018-06-20T17:54:51.795Z,44.58
2018-06-20T17:55:51.801Z,45.01
2018-06-20T17:56:51.798Z,46.89
2018-06-20T17:57:51.821Z,47.31
2018-06-20T17:58:51.812Z,47.11
2018-06-20T17:59:51.793Z,48.16
2018-06-20T18:00:51.802Z,47.97
2018-06-20T18:01:51.787Z,48.63
2018-06-20T18:02:51.791Z,49.51
2018-06-20T18:03:51.791Z,49.33
2018-06-20T18:04:51.782Z,48.48
2018-06-20T18:05:51.775Z,48.63
2018-06-20T18:06:51.771Z,50.31
2018-06-20T18:07:51.778Z,51.48
2018-06-20T18:08:51.767Z,52.24
2018-06-20T18:09:51.765Z,53.41
2018-06-20T18:10:51.762Z,52.60
2018-06-20T18:11:51.756Z,53.28
2018-06-20T18:12:51.766Z,53.38
2018-06-20T18:13:51.789Z,53.65
2018-06-20T18:14:51.742Z,54.46
2018-06-20T18:15:51.737Z,54.23
2018-06-20T18:16:51.735Z,54.60
2018-06-20T18:17:51.727Z,54.99
2018-06-20T18:18:51.732Z,55.37
2018-06-20T18:19:51.714Z,55.57
2018-06-20T18:20:51.710Z,55.27
2018-06-20T18:21:51.739Z,55.57
2018-06-20T18:22:51.697Z,55.37
2018-06-20T18:23:51.699Z,55.66
2018-06-20T18:24:51.687Z,55.35
2018-06-20T18:25:51.681Z,56.32
2018-06-20T18:26:51.669Z,56.03
2018-06-20T18:27:51.664Z,56.22
2018-06-20T18:28:51.665Z,55.54
2018-06-20T18:29:51.654Z,56.03
2018-06-20T18:30:51.641Z,56.41
2018-06-20T18:31:51.655Z,55.64
2018-06-20T18:32:51.630Z,56.03
2018-06-20T18:33:51.638Z,56.97
2018-06-20T18:34:51.620Z,56.39
2018-06-20T18:35:51.606Z,56.36
2018-06-20T18:36:51.596Z,57.14
2018-06-20T18:37:51.588Z,56.95
2018-06-20T18:38:51.615Z,56.95
2018-06-20T18:39:51.604Z,57.33
2018-06-20T18:40:51.568Z,57.53
2018-06-20T18:41:51.558Z,57.43
2018-06-20T18:42:51.546Z,56.75
2018-06-20T18:43:51.542Z,57.62
2018-06-20T18:44:51.546Z,57.53
2018-06-20T18:45:51.524Z,57.43
2018-06-20T18:46:51.518Z,57.92
2018-06-20T18:47:51.504Z,57.43
2018-06-20T18:48:51.592Z,57.79
2018-06-20T18:49:51.506Z,57.11
2018-06-20T18:50:51.484Z,57.98
2018-06-20T18:51:51.471Z,57.89
2018-06-20T18:52:51.463Z,57.79
2018-06-20T18:53:51.462Z,57.98
2018-06-20T18:54:51.448Z,57.79
2018-06-20T18:55:51.446Z,58.25
2018-06-20T18:56:51.429Z,58.54
2018-06-20T18:57:51.450Z,57.96
2018-06-20T18:58:51.409Z,58.25
2018-06-20T18:59:51.401Z,59.12
2018-06-20T19:00:51.401Z,59.22
2018-06-20T19:01:51.384Z,60.19
2018-06-20T19:02:51.373Z,59.22
2018-06-20T19:03:51.366Z,59.61
2018-06-20T19:04:51.355Z,60.09
2018-06-20T19:05:51.358Z,60.45
2018-06-20T19:06:51.378Z,60.64
2018-06-20T19:07:51.329Z,61.13
2018-06-20T19:08:51.357Z,61.52
2018-06-20T19:09:51.312Z,62.10
2018-06-20T19:10:51.317Z,62.68
2018-06-20T19:11:51.294Z,62.78
2018-06-20T19:12:51.282Z,62.26
2018-06-20T19:13:51.273Z,63.07
2018-06-20T19:14:51.261Z,63.23
2018-06-20T19:15:51.260Z,63.43
2018-06-20T19:16:51.242Z,64.01
2018-06-20T19:17:51.233Z,64.01
2018-06-20T19:18:51.225Z,64.69
2018-06-20T19:19:51.234Z,64.59
2018-06-20T19:20:51.220Z,64.69
2018-06-20T19:21:51.194Z,64.75
2018-06-20T19:22:51.188Z,65.72
2018-06-20T19:23:51.175Z,65.72
2018-06-20T19:24:51.162Z,66.02
2018-06-20T19:25:51.158Z,66.50
2018-06-20T19:26:51.162Z,67.18
2018-06-20T19:27:51.144Z,67.34
2018-06-20T19:28:51.127Z,67.92
2018-06-20T19:29:51.116Z,68.12
2018-06-20T19:30:51.108Z,68.70
2018-06-20T19:31:51.116Z,68.89
2018-06-20T19:32:51.089Z,69.18
2018-06-20T19:33:51.079Z,70.21
2018-06-20T19:34:51.066Z,69.63
2018-06-20T19:35:51.053Z,70.01
2018-06-20T19:36:51.056Z,69.53
2018-06-20T19:37:51.036Z,69.63
2018-06-20T19:38:51.020Z,69.73
2018-06-20T19:39:51.021Z,70.11
2018-06-20T19:40:51.005Z,70.21
2018-06-20T19:41:51.005Z,70.01
2018-06-20T19:42:50.990Z,71.28
2018-06-20T19:43:50.973Z,71.66
2018-06-20T19:44:51.016Z,71.72
2018-06-20T19:45:50.953Z,72.79
2018-06-20T19:46:50.958Z,71.66
2018-06-20T19:47:50.934Z,72.21
2018-06-20T19:48:50.925Z,72.40
2018-06-20T19:49:50.914Z,72.89
2018-06-20T19:50:50.903Z,72.79
2018-06-20T19:51:50.930Z,72.60
2018-06-20T19:52:50.887Z,72.79
2018-06-20T19:53:50.881Z,73.66
2018-06-20T19:54:50.859Z,74.40
2018-06-20T19:55:50.852Z,75.27
2018-06-20T19:56:50.837Z,75.56
2018-06-20T19:57:50.836Z,75.75
2018-06-20T19:58:50.814Z,76.04
2018-06-20T19:59:50.810Z,77.01
2018-06-20T20:00:50.794Z,77.30
2018-06-20T20:01:50.789Z,78.17
2018-06-20T20:02:50.786Z,79.20
2018-06-20T20:03:50.762Z,79.97
2018-06-20T20:04:50.753Z,81.81
2018-06-20T20:05:50.741Z,82.39
2018-06-20T20:06:50.730Z,82.78
2018-06-20T20:07:50.720Z,83.70
2018-06-20T20:08:50.734Z,84.47
2018-06-20T20:09:50.698Z,84.47
2018-06-20T20:10:50.688Z,86.69
2018-06-20T20:11:50.681Z,86.60
2018-06-20T20:12:50.708Z,88.29
2018-06-20T20:13:50.669Z,89.45
2018-06-20T20:14:50.652Z,91.00
2018-06-20T20:15:50.637Z,93.23
2018-06-20T20:16:50.620Z,93.23
2018-06-20T20:17:50.611Z,95.25
2018-06-20T20:18:50.610Z,96.22
2018-06-20T20:19:50.593Z,97.62
2018-06-20T20:20:50.572Z,97.52
2018-06-20T20:21:50.568Z,97.24
2018-06-20T20:22:50.556Z,99.16
2018-06-20T20:23:50.555Z,99.74
2018-06-20T20:24:50.531Z,99.74
2018-06-20T20:25:50.520Z,99.99
2018-06-20T20:26:50.512Z,99.99
2018-06-20T20:27:50.496Z,99.99
2018-06-20T20:28:50.483Z,99.99
2018-06-20T20:29:50.497Z,99.99
2018-06-20T20:30:50.462Z,99.99
2018-06-20T20:31:50.451Z,99.99
2018-06-20T20:32:50.448Z,99.99
2018-06-20T20:33:50.472Z,99.99
2018-06-20T20:34:50.426Z,99.99
2018-06-20T20:35:50.408Z,99.99
2018-06-20T20:36:50.403Z,99.99
2018-06-20T20:37:50.388Z,99.99
2018-06-20T20:38:50.368Z,99.99
2018-06-20T20:39:50.369Z,99.99
2018-06-20T20:40:50.346Z,99.99
2018-06-20T20:41:50.338Z,99.99
2018-06-20T20:42:50.329Z,99.99
2018-06-20T20:43:50.312Z,99.99
2018-06-20T20:44:50.315Z,99.99
2018-06-20T20:45:50.291Z,99.99
2018-06-20T20:46:50.277Z,99.99
2018-06-20T20:47:50.266Z,99.99
2018-06-20T20:48:50.260Z,99.99
2018-06-20T20:49:50.255Z,99.99
2018-06-20T20:50:50.231Z,99.99
2018-06-20T20:51:50.217Z,99.99
2018-06-20T20:52:50.202Z,99.99
2018-06-20T20:53:50.205Z,99.99
2018-06-20T20:54:50.181Z,99.99
2018-06-20T20:55:50.183Z,99.99
2018-06-20T20:56:50.157Z,99.99
2018-06-20T20:57:50.151Z,99.99
2018-06-20T20:58:50.136Z,99.99
2018-06-20T20:59:50.124Z,99.99
2018-06-20T21:00:50.120Z,99.99
2018-06-20T21:01:50.099Z,99.99
2018-06-20T21:02:50.087Z,99.99
2018-06-20T21:03:50.074Z,99.99
2018-06-20T21:04:50.063Z,99.99
2018-06-20T21:05:50.069Z,99.99
2018-06-20T21:06:50.037Z,99.99
2018-06-20T21:07:50.023Z,99.99
2018-06-20T21:08:50.012Z,99.99
2018-06-20T21:09:50.001Z,99.99
2018-06-20T21:10:49.989Z,99.99
2018-06-20T21:11:49.987Z,99.99
2018-06-20T21:12:49.966Z,99.99
2018-06-20T21:13:49.953Z,99.99
2018-06-20T21:14:49.942Z,99.99
2018-06-20T21:15:49.934Z,99.99
2018-06-20T21:16:49.924Z,99.99
2018-06-20T21:17:49.903Z,99.99
2018-06-20T21:18:49.886Z,99.99
2018-06-20T21:19:49.879Z,99.99
2018-06-20T21:20:49.866Z,99.99
2018-06-20T21:21:49.870Z,99.99
2018-06-20T21:22:49.848Z,99.99
2018-06-20T21:23:49.829Z,99.99
2018-06-20T21:24:49.819Z,99.99
2018-06-20T21:25:49.807Z,99.99
2018-06-20T21:26:49.791Z,99.99
2018-06-20T21:27:49.840Z,99.99
2018-06-20T21:28:49.769Z,99.99
2018-06-20T21:29:49.756Z,99.99
2018-06-20T21:30:49.742Z,99.99
2018-06-20T21:31:49.732Z,99.99
2018-06-20T21:32:49.741Z,99.99
2018-06-20T21:33:49.707Z,99.99
2018-06-20T21:34:49.692Z,99.99
2018-06-20T21:35:49.680Z,99.99
2018-06-20T21:36:49.668Z,99.99
2018-06-20T21:37:49.672Z,99.99
2018-06-20T21:38:49.644Z,99.99
2018-06-20T21:39:49.633Z,99.99
2018-06-20T21:40:49.618Z,99.99
2018-06-20T21:41:49.603Z,99.99
2018-06-20T21:42:49.595Z,99.99
2018-06-20T21:43:49.590Z,99.99
2018-06-20T21:44:49.570Z,99.99
2018-06-20T21:45:49.560Z,99.99
2018-06-20T21:46:49.541Z,99.99
2018-06-20T21:47:49.529Z,99.99
2018-06-20T21:48:49.529Z,99.99
2018-06-20T21:49:49.504Z,99.99
2018-06-20T21:50:49.497Z,99.99
2018-06-20T21:51:49.478Z,99.99
2018-06-20T21:52:49.465Z,99.99
2018-06-20T21:53:49.479Z,99.99
2018-06-20T21:54:49.448Z,99.99
2018-06-20T21:55:49.431Z,99.99
2018-06-20T21:56:49.415Z,99.99
2018-06-20T21:57:49.401Z,99.99
2018-06-20T21:58:49.386Z,99.99
2018-06-20T21:59:49.388Z,99.99
2018-06-20T22:00:49.370Z,99.99
2018-06-20T22:01:49.355Z,99.99
2018-06-20T22:02:49.337Z,99.99
2018-06-20T22:03:49.323Z,99.99
2018-06-20T22:04:49.372Z,99.99
2018-06-20T22:05:49.304Z,99.99
2018-06-20T22:06:49.284Z,99.99
2018-06-20T22:07:49.271Z,99.99
2018-06-20T22:08:49.261Z,99.99
2018-06-20T22:09:49.248Z,99.99
2018-06-20T22:10:49.238Z,99.99
2018-06-20T22:11:49.219Z,99.99
2018-06-20T22:12:49.207Z,99.99
2018-06-20T22:13:49.195Z,99.99
2018-06-20T22:14:49.192Z,99.99
2018-06-20T22:15:49.181Z,99.99
2018-06-20T22:16:49.154Z,99.99
2018-06-20T22:17:49.140Z,99.99
2018-06-20T22:18:49.127Z,99.99
2018-06-20T22:19:49.114Z,99.99
2018-06-20T22:20:49.101Z,99.99
2018-06-20T22:21:49.114Z,99.99
2018-06-20T22:22:49.075Z,99.99
2018-06-20T22:23:49.064Z,99.99
2018-06-20T22:24:49.046Z,99.99
2018-06-20T22:25:49.036Z,99.99
2018-06-20T22:26:49.032Z,99.99
2018-06-20T22:27:49.011Z,99.99
2018-06-20T22:28:48.996Z,99.99
2018-06-20T22:29:48.986Z,99.99
2018-06-20T22:30:48.970Z,99.99